Time;durP1;ratioP1;P1;durP2;ratioP2;P2;SDS_P1;SDS_P2;PMS_P1;PMS_P2;Temp;Humidity;BMP_temperature;BMP_pressure;BME280_temperature;BME280_humidity;BME280_pressure;Samples;Min_cycle;Max_cycle;Signal;HPM_P1;HPM_P2
2022/12/20 00:02:14;;;;;;;12.98;6.55;;;;;;;;;;4965004;28;20033;-72
2022/12/20 00:04:39;;;;;;;9.95;5.80;;;;;;;;;;4946940;28;20030;-72
2022/12/20 00:07:05;;;;;;;14.00;5.95;;;;;;;;;;4965336;28;20483;-74
2022/12/20 00:09:30;;;;;;;11.98;5.45;;;;;;;;;;4966775;28;20042;-73
2022/12/20 00:11:58;;;;;;;10.48;5.95;;;;;;;;;;4964768;28;20053;-72
2022/12/20 00:14:24;;;;;;;11.45;5.40;;;;;;;;;;4967033;28;20030;-71
2022/12/20 00:16:52;;;;;;;13.88;5.57;;;;;;;;;;4966732;28;20432;-73
2022/12/20 00:19:17;;;;;;;14.82;4.97;;;;;;;;;;4966322;28;20038;-72
2022/12/20 00:21:45;;;;;;;9.50;5.13;;;;;;;;;;4929251;28;20542;-71
2022/12/20 00:24:11;;;;;;;9.23;4.82;;;;;;;;;;4963895;28;20035;-72
2022/12/20 00:26:38;;;;;;;25.25;10.02;;;;;;;;;;4964371;28;20026;-73
2022/12/20 00:29:06;;;;;;;14.10;7.07;;;;;;;;;;4963817;28;20638;-73
2022/12/20 00:31:32;;;;;;;10.98;6.38;;;;;;;;;;4962724;28;20547;-72
2022/12/20 00:33:58;;;;;;;11.02;5.03;;;;;;;;;;4962236;28;20042;-74
2022/12/20 00:36:26;;;;;;;9.35;4.95;;;;;;;;;;4961422;28;20272;-73
2022/12/20 00:38:52;;;;;;;12.30;5.03;;;;;;;;;;4945367;28;20038;-74
2022/12/20 00:41:21;;;;;;;11.32;5.13;;;;;;;;;;4962420;28;20027;-73
2022/12/20 00:43:47;;;;;;;19.85;7.90;;;;;;;;;;4961583;28;20091;-71
2022/12/20 00:46:16;;;;;;;18.63;6.88;;;;;;;;;;4961388;28;20107;-71
2022/12/20 00:48:41;;;;;;;13.48;6.00;;;;;;;;;;4961246;28;20035;-71
2022/12/20 00:51:08;;;;;;;13.00;6.25;;;;;;;;;;4959848;28;20042;-73
2022/12/20 00:53:36;;;;;;;12.48;5.75;;;;;;;;;;4961739;28;20073;-72
2022/12/20 00:56:04;;;;;;;19.67;7.35;;;;;;;;;;4945067;28;20611;-71
2022/12/20 00:58:31;;;;;;;19.42;7.70;;;;;;;;;;4961515;28;20114;-73
2022/12/20 01:00:59;;;;;;;24.63;8.75;;;;;;;;;;4961257;28;20307;-73
2022/12/20 01:03:24;;;;;;;32.30;10.07;;;;;;;;;;4961691;28;20070;-72
2022/12/20 01:05:53;;;;;;;20.63;8.40;;;;;;;;;;4943968;28;20121;-71
2022/12/20 01:08:19;;;;;;;13.00;6.20;;;;;;;;;;4959073;28;20051;-72
2022/12/20 01:10:45;;;;;;;19.98;8.90;;;;;;;;;;4961092;28;20045;-71
2022/12/20 01:13:10;;;;;;;23.83;8.63;;;;;;;;;;4948545;28;20597;-73
2022/12/20 01:15:36;;;;;;;12.10;5.70;;;;;;;;;;4944128;28;20034;-72
2022/12/20 01:18:01;;;;;;;26.17;10.40;;;;;;;;;;4962121;28;20049;-72
2022/12/20 01:20:29;;;;;;;14.45;8.25;;;;;;;;;;4964492;28;20537;-71
2022/12/20 01:22:54;;;;;;;16.15;7.78;;;;;;;;;;4964367;28;20035;-71
2022/12/20 01:25:22;;;;;;;18.02;7.40;;;;;;;;;;4964697;28;20545;-72
2022/12/20 01:27:47;;;;;;;19.30;8.45;;;;;;;;;;4964761;28;20039;-72
2022/12/20 01:30:13;;;;;;;17.70;8.15;;;;;;;;;;4964485;28;20046;-71
2022/12/20 01:32:40;;;;;;;17.98;8.23;;;;;;;;;;4962664;28;20293;-71
2022/12/20 01:35:06;;;;;;;27.52;11.45;;;;;;;;;;4965230;28;20150;-73
2022/12/20 01:37:31;;;;;;;28.60;12.38;;;;;;;;;;4963716;28;20038;-73
2022/12/20 01:39:56;;;;;;;24.83;12.90;;;;;;;;;;4945597;28;20034;-72
2022/12/20 01:42:24;;;;;;;22.40;10.65;;;;;;;;;;4962437;28;20034;-73
2022/12/20 01:44:51;;;;;;;15.00;8.13;;;;;;;;;;4962756;28;20035;-73
2022/12/20 01:47:16;;;;;;;21.25;11.07;;;;;;;;;;4960462;28;20077;-74
2022/12/20 01:49:45;;;;;;;21.92;11.27;;;;;;;;;;4984978;28;20046;-74
2022/12/20 01:52:25;;;;;;;17.20;7.72;;;;;;;;;;4983500;28;20381;-72
2022/12/20 01:54:54;;;;;;;12.68;6.75;;;;;;;;;;4989330;28;20019;-73
2022/12/20 01:57:41;;;;;;;15.50;6.90;;;;;;;;;;4984970;28;20031;-74
2022/12/20 02:00:09;;;;;;;19.88;8.55;;;;;;;;;;4984869;28;20404;-73
2022/12/20 02:02:35;;;;;;;20.73;9.70;;;;;;;;;;4984875;28;20034;-73
2022/12/20 02:05:00;;;;;;;30.92;12.45;;;;;;;;;;4984181;28;20693;-73
2022/12/20 02:07:30;;;;;;;23.33;10.13;;;;;;;;;;4963163;28;20026;-73
2022/12/20 02:09:57;;;;;;;28.52;13.98;;;;;;;;;;4979604;28;20031;-73
2022/12/20 02:12:27;;;;;;;24.35;12.20;;;;;;;;;;4978889;28;20049;-75
2022/12/20 02:15:11;;;;;;;30.75;12.25;;;;;;;;;;4960721;28;20229;-75
2022/12/20 02:17:48;;;;;;;28.50;13.07;;;;;;;;;;4976919;28;20054;-72
2022/12/20 02:20:28;;;;;;;28.27;12.98;;;;;;;;;;4978345;28;20038;-72
2022/12/20 02:22:56;;;;;;;24.13;11.90;;;;;;;;;;4976662;28;20050;-72
2022/12/20 02:25:41;;;;;;;23.52;11.15;;;;;;;;;;4975880;28;20034;-73
2022/12/20 02:28:09;;;;;;;29.05;12.27;;;;;;;;;;4976974;28;20030;-72
2022/12/20 02:30:36;;;;;;;33.00;12.65;;;;;;;;;;4976754;28;20404;-73
2022/12/20 02:33:03;;;;;;;25.40;11.60;;;;;;;;;;4980129;28;20046;-73
2022/12/20 02:35:30;;;;;;;23.15;10.75;;;;;;;;;;4978097;28;20042;-72
2022/12/20 02:37:57;;;;;;;32.40;13.20;;;;;;;;;;4977799;28;20150;-73
2022/12/20 02:40:26;;;;;;;22.63;10.50;;;;;;;;;;4961962;28;20030;-74
2022/12/20 02:42:58;;;;;;;16.38;8.75;;;;;;;;;;4960182;28;20415;-72
2022/12/20 02:45:26;;;;;;;17.93;9.90;;;;;;;;;;4972469;28;20045;-73
2022/12/20 02:47:54;;;;;;;23.60;11.35;;;;;;;;;;4972343;28;20353;-74
2022/12/20 02:50:25;;;;;;;21.65;9.38;;;;;;;;;;4975049;28;20038;-72
2022/12/20 02:52:53;;;;;;;25.23;10.37;;;;;;;;;;4978859;28;20043;-73
2022/12/20 02:55:22;;;;;;;30.27;12.15;;;;;;;;;;4978993;28;20600;-73
2022/12/20 02:57:54;;;;;;;23.88;10.15;;;;;;;;;;4977334;28;20541;-72
2022/12/20 03:00:20;;;;;;;16.33;8.13;;;;;;;;;;4973995;28;20042;-73
2022/12/20 03:05:36;;;;;;;27.63;11.48;;;;;;;;;;4976838;28;20127;-72
2022/12/20 03:08:01;;;;;;;24.55;12.75;;;;;;;;;;4977715;28;20532;-73
2022/12/20 03:10:29;;;;;;;16.70;10.30;;;;;;;;;;4977212;28;20045;-74
2022/12/20 03:12:55;;;;;;;19.50;10.57;;;;;;;;;;4964882;28;20038;-72
2022/12/20 03:15:20;;;;;;;23.73;11.10;;;;;;;;;;4980887;28;20584;-73
2022/12/20 03:17:46;;;;;;;25.75;13.52;;;;;;;;;;4974945;28;20046;-72
2022/12/20 03:20:13;;;;;;;21.73;11.85;;;;;;;;;;4974766;28;20042;-72
2022/12/20 03:22:38;;;;;;;21.15;11.70;;;;;;;;;;4957437;28;20030;-73
2022/12/20 03:25:07;;;;;;;22.15;11.35;;;;;;;;;;4977414;28;20045;-72
2022/12/20 03:27:32;;;;;;;17.85;8.63;;;;;;;;;;4957692;28;20034;-73
2022/12/20 03:29:58;;;;;;;16.63;8.00;;;;;;;;;;4976871;28;20034;-74
2022/12/20 03:32:25;;;;;;;27.45;12.50;;;;;;;;;;4975834;28;20080;-74
2022/12/20 03:34:51;;;;;;;15.68;8.25;;;;;;;;;;4955867;28;20034;-73
2022/12/20 03:37:16;;;;;;;22.20;8.57;;;;;;;;;;4959163;28;20114;-73
2022/12/20 03:39:42;;;;;;;21.73;9.80;;;;;;;;;;4959370;28;20038;-73
2022/12/20 03:42:07;;;;;;;18.80;8.80;;;;;;;;;;4958172;28;20942;-73
2022/12/20 03:44:33;;;;;;;14.45;7.70;;;;;;;;;;4974692;28;20045;-73
2022/12/20 03:46:58;;;;;;;15.45;7.78;;;;;;;;;;4941647;28;20436;-73
2022/12/20 03:49:23;;;;;;;16.17;7.53;;;;;;;;;;4956801;28;20071;-72
2022/12/20 03:51:49;;;;;;;29.42;11.60;;;;;;;;;;4976169;28;20062;-71
2022/12/20 03:54:14;;;;;;;19.25;8.80;;;;;;;;;;4962734;28;20511;-74
2022/12/20 03:56:39;;;;;;;15.52;7.95;;;;;;;;;;4978611;28;20038;-74
2022/12/20 03:59:04;;;;;;;13.23;7.53;;;;;;;;;;4964639;28;20113;-74
2022/12/20 04:01:30;;;;;;;12.25;6.30;;;;;;;;;;4965820;28;20062;-74
2022/12/20 04:03:58;;;;;;;12.75;5.82;;;;;;;;;;4960135;28;20038;-74
2022/12/20 04:06:25;;;;;;;8.60;5.80;;;;;;;;;;4979132;28;20400;-73
2022/12/20 04:08:53;;;;;;;13.95;6.72;;;;;;;;;;4944243;28;20041;-74
2022/12/20 04:11:18;;;;;;;27.92;11.20;;;;;;;;;;4980266;28;20034;-74
2022/12/20 04:13:45;;;;;;;18.63;8.02;;;;;;;;;;4959176;28;20060;-73
2022/12/20 04:16:14;;;;;;;11.27;6.05;;;;;;;;;;4963878;28;20035;-74
2022/12/20 04:18:39;;;;;;;15.32;6.10;;;;;;;;;;4980301;28;20022;-74
2022/12/20 04:21:07;;;;;;;9.40;5.38;;;;;;;;;;4961767;28;20029;-74
2022/12/20 04:23:36;;;;;;;9.95;4.82;;;;;;;;;;4979615;28;20414;-73
2022/12/20 04:26:02;;;;;;;12.13;5.10;;;;;;;;;;4978565;28;20038;-75
2022/12/20 04:28:28;;;;;;;8.48;5.00;;;;;;;;;;4978464;28;20034;-74
2022/12/20 04:30:54;;;;;;;12.27;6.78;;;;;;;;;;4979728;28;20031;-73
2022/12/20 04:33:20;;;;;;;10.30;5.53;;;;;;;;;;4977925;28;20053;-73
2022/12/20 04:35:45;;;;;;;8.85;5.38;;;;;;;;;;4960128;28;20038;-74
2022/12/20 04:38:10;;;;;;;8.00;5.10;;;;;;;;;;4977932;28;20031;-74
2022/12/20 04:40:35;;;;;;;10.55;5.30;;;;;;;;;;4958061;28;20031;-74
2022/12/20 04:43:01;;;;;;;13.40;5.88;;;;;;;;;;4969265;28;20441;-74
2022/12/20 04:45:28;;;;;;;17.65;7.65;;;;;;;;;;4967329;28;20265;-74
2022/12/20 04:47:56;;;;;;;14.77;6.30;;;;;;;;;;4968378;28;20664;-74
2022/12/20 04:50:21;;;;;;;13.00;6.97;;;;;;;;;;4965222;28;20519;-75
2022/12/20 04:55:30;;;;;;;13.57;6.45;;;;;;;;;;4962810;28;20413;-72
2022/12/20 04:57:56;;;;;;;10.65;5.68;;;;;;;;;;4962611;28;20037;-71
2022/12/20 05:00:21;;;;;;;11.23;5.57;;;;;;;;;;4944455;28;20530;-71
2022/12/20 05:02:50;;;;;;;12.27;5.90;;;;;;;;;;4962058;28;20121;-71
2022/12/20 05:05:19;;;;;;;18.95;8.25;;;;;;;;;;4962338;28;20037;-72
2022/12/20 05:07:45;;;;;;;12.98;6.38;;;;;;;;;;4929589;28;20031;-73
2022/12/20 05:10:10;;;;;;;12.25;5.80;;;;;;;;;;4961311;28;20532;-73
2022/12/20 05:12:35;;;;;;;13.02;6.80;;;;;;;;;;4945490;28;20493;-73
2022/12/20 05:15:01;;;;;;;13.65;7.28;;;;;;;;;;4947293;28;20034;-73
2022/12/20 05:17:26;;;;;;;12.98;6.18;;;;;;;;;;4963396;28;20540;-74
2022/12/20 05:19:51;;;;;;;13.02;7.35;;;;;;;;;;4963775;28;20023;-73
2022/12/20 05:27:44;;;;;;;11.32;7.38;;;;;;;;;;4961013;28;20058;-72
2022/12/20 05:30:10;;;;;;;17.77;7.50;;;;;;;;;;4944011;28;20436;-74
2022/12/20 05:32:35;;;;;;;15.75;7.13;;;;;;;;;;4943762;28;20203;-74
2022/12/20 05:35:03;;;;;;;18.30;9.65;;;;;;;;;;4961420;28;20041;-72
2022/12/20 05:37:28;;;;;;;29.00;12.68;;;;;;;;;;4961932;28;20200;-72
2022/12/20 05:39:54;;;;;;;13.05;8.45;;;;;;;;;;4960710;28;20038;-73
2022/12/20 05:42:19;;;;;;;16.77;9.57;;;;;;;;;;4942774;28;20136;-73
2022/12/20 05:44:44;;;;;;;14.35;9.50;;;;;;;;;;4960607;28;20496;-72
2022/12/20 05:47:10;;;;;;;19.88;11.27;;;;;;;;;;4939458;28;20074;-72
2022/12/20 05:49:35;;;;;;;15.18;8.48;;;;;;;;;;4942110;28;20457;-74
2022/12/20 05:52:01;;;;;;;16.48;7.95;;;;;;;;;;4941042;28;20456;-72
2022/12/20 05:54:26;;;;;;;27.33;11.57;;;;;;;;;;4940989;28;20042;-72
2022/12/20 05:56:57;;;;;;;19.05;9.30;;;;;;;;;;4924533;28;20035;-75
2022/12/20 05:59:22;;;;;;;16.90;9.38;;;;;;;;;;4923187;28;20558;-72
2022/12/20 06:01:47;;;;;;;21.58;10.80;;;;;;;;;;4940928;28;20346;-76
2022/12/20 06:04:12;;;;;;;32.45;12.45;;;;;;;;;;4940858;28;20555;-73
2022/12/20 06:06:38;;;;;;;17.77;8.75;;;;;;;;;;4943863;28;20103;-71
2022/12/20 06:09:03;;;;;;;16.20;8.98;;;;;;;;;;4945859;28;20070;-72
2022/12/20 06:11:29;;;;;;;24.80;11.40;;;;;;;;;;4926419;28;20550;-72
2022/12/20 06:13:54;;;;;;;20.00;9.95;;;;;;;;;;4926470;28;20046;-72
2022/12/20 06:16:22;;;;;;;18.10;9.82;;;;;;;;;;4944442;28;20550;-73
2022/12/20 06:18:50;;;;;;;20.15;9.82;;;;;;;;;;4926820;28;20030;-72
2022/12/20 06:21:18;;;;;;;17.70;8.18;;;;;;;;;;4926414;28;20525;-72
2022/12/20 06:23:43;;;;;;;16.25;7.90;;;;;;;;;;4944546;28;20106;-73
2022/12/20 06:26:08;;;;;;;18.92;7.60;;;;;;;;;;4943015;28;20035;-72
2022/12/20 06:28:41;;;;;;;12.40;7.20;;;;;;;;;;4926175;28;20073;-72
2022/12/20 06:31:07;;;;;;;30.23;11.45;;;;;;;;;;4926685;28;20043;-73
2022/12/20 06:33:32;;;;;;;12.32;7.13;;;;;;;;;;4925851;28;20100;-72
2022/12/20 06:35:57;;;;;;;14.00;5.90;;;;;;;;;;4942681;28;20027;-72
2022/12/20 06:38:23;;;;;;;24.00;10.13;;;;;;;;;;4943990;28;20038;-74
2022/12/20 06:40:49;;;;;;;14.10;6.53;;;;;;;;;;4924964;28;20330;-73
2022/12/20 06:43:16;;;;;;;14.40;7.50;;;;;;;;;;4909337;28;20045;-72
2022/12/20 06:45:42;;;;;;;12.52;6.25;;;;;;;;;;4943024;28;20031;-72
2022/12/20 06:48:07;;;;;;;11.55;6.88;;;;;;;;;;4942917;28;20265;-71
2022/12/20 06:50:32;;;;;;;11.98;6.28;;;;;;;;;;4942910;28;20034;-72
2022/12/20 06:53:00;;;;;;;15.23;6.22;;;;;;;;;;4943056;28;20822;-73
2022/12/20 06:55:25;;;;;;;13.27;6.53;;;;;;;;;;4943677;28;20039;-72
2022/12/20 06:57:51;;;;;;;32.88;10.25;;;;;;;;;;4940283;28;20039;-73
2022/12/20 07:00:17;;;;;;;15.88;6.00;;;;;;;;;;4949312;28;20402;-71
2022/12/20 07:02:42;;;;;;;9.98;5.70;;;;;;;;;;4962504;28;20575;-72
2022/12/20 07:05:07;;;;;;;15.02;6.88;;;;;;;;;;4955297;28;20035;-72
2022/12/20 07:07:32;;;;;;;21.83;8.98;;;;;;;;;;4944099;28;20038;-73
2022/12/20 07:09:58;;;;;;;13.77;6.68;;;;;;;;;;4963429;28;20797;-70
2022/12/20 07:12:23;;;;;;;12.10;5.30;;;;;;;;;;4963605;28;20044;-73
2022/12/20 07:14:48;;;;;;;27.83;11.00;;;;;;;;;;4963818;28;20301;-72
2022/12/20 07:17:16;;;;;;;12.95;6.85;;;;;;;;;;4963443;28;20573;-71
2022/12/20 07:19:44;;;;;;;12.18;5.45;;;;;;;;;;4963092;28;20133;-72
2022/12/20 07:22:09;;;;;;;9.60;5.50;;;;;;;;;;4963491;28;20855;-73
2022/12/20 07:24:37;;;;;;;20.35;6.70;;;;;;;;;;4964026;28;20037;-72
2022/12/20 07:27:05;;;;;;;17.17;8.05;;;;;;;;;;4963910;28;20052;-73
2022/12/20 07:29:30;;;;;;;12.13;6.93;;;;;;;;;;4944998;28;20157;-72
2022/12/20 07:31:56;;;;;;;15.77;9.55;;;;;;;;;;4963414;28;20069;-72
2022/12/20 07:34:23;;;;;;;13.95;5.50;;;;;;;;;;4927849;28;20134;-72
2022/12/20 07:36:51;;;;;;;20.40;8.35;;;;;;;;;;4963592;28;20039;-74
2022/12/20 07:39:18;;;;;;;13.48;5.28;;;;;;;;;;4944345;28;20452;-73
2022/12/20 07:41:43;;;;;;;9.15;5.32;;;;;;;;;;4963430;28;20715;-72
2022/12/20 07:44:09;;;;;;;10.45;5.05;;;;;;;;;;4962563;28;20162;-72
2022/12/20 07:46:36;;;;;;;10.40;4.93;;;;;;;;;;4952743;28;20477;-73
2022/12/20 07:49:02;;;;;;;12.55;5.43;;;;;;;;;;4960967;28;20062;-71
2022/12/20 07:51:33;;;;;;;11.90;5.07;;;;;;;;;;4960903;28;20031;-74
2022/12/20 07:54:02;;;;;;;17.85;6.45;;;;;;;;;;4960889;28;20053;-72
2022/12/20 07:56:28;;;;;;;14.60;6.03;;;;;;;;;;4960364;28;20092;-73
2022/12/20 07:58:57;;;;;;;25.50;10.35;;;;;;;;;;4961186;28;20026;-73
2022/12/20 08:01:22;;;;;;;15.35;6.57;;;;;;;;;;4960558;28;20127;-72
2022/12/20 08:03:50;;;;;;;8.98;4.85;;;;;;;;;;4960886;28;20147;-71
2022/12/20 08:06:16;;;;;;;13.32;6.15;;;;;;;;;;4942381;28;20037;-71
2022/12/20 08:08:42;;;;;;;23.35;8.23;;;;;;;;;;4961368;28;20460;-72
2022/12/20 08:11:09;;;;;;;12.05;5.45;;;;;;;;;;4960318;28;20541;-71
2022/12/20 08:13:34;;;;;;;11.68;5.30;;;;;;;;;;4960669;28;20371;-72
2022/12/20 08:16:02;;;;;;;12.65;5.32;;;;;;;;;;4960596;28;20537;-72
2022/12/20 08:18:30;;;;;;;20.73;7.38;;;;;;;;;;4943769;28;20046;-72
2022/12/20 08:20:56;;;;;;;12.85;6.03;;;;;;;;;;4961010;28;20049;-73
2022/12/20 08:23:21;;;;;;;9.27;5.03;;;;;;;;;;4942999;28;20511;-71
2022/12/20 08:25:49;;;;;;;7.32;4.22;;;;;;;;;;4944222;28;20069;-74
2022/12/20 08:28:15;;;;;;;9.95;4.70;;;;;;;;;;4925873;28;20042;-71
2022/12/20 08:30:40;;;;;;;12.02;5.72;;;;;;;;;;4942976;28;20038;-72
2022/12/20 08:33:08;;;;;;;10.05;5.00;;;;;;;;;;4942039;28;20045;-71
2022/12/20 08:35:35;;;;;;;19.10;7.95;;;;;;;;;;4942865;28;20452;-72
2022/12/20 08:38:01;;;;;;;17.40;6.70;;;;;;;;;;4958821;28;20484;-71
2022/12/20 08:40:29;;;;;;;13.85;5.55;;;;;;;;;;4942826;28;20584;-70
2022/12/20 08:42:54;;;;;;;14.65;6.63;;;;;;;;;;4959574;28;20077;-70
2022/12/20 08:45:20;;;;;;;17.50;7.63;;;;;;;;;;4959978;28;20064;-69
2022/12/20 08:47:46;;;;;;;10.30;6.10;;;;;;;;;;4959944;28;20333;-71
2022/12/20 08:50:14;;;;;;;11.98;5.85;;;;;;;;;;4943285;28;20038;-71
2022/12/20 08:52:39;;;;;;;11.35;6.43;;;;;;;;;;4960218;28;21742;-71
2022/12/20 08:55:05;;;;;;;11.07;6.20;;;;;;;;;;4942074;28;20118;-71
2022/12/20 08:57:30;;;;;;;16.00;7.10;;;;;;;;;;4960196;28;20057;-71
2022/12/20 08:59:56;;;;;;;21.95;9.68;;;;;;;;;;4959149;28;20318;-71
2022/12/20 09:02:21;;;;;;;14.68;7.70;;;;;;;;;;4959896;28;20087;-72
2022/12/20 09:04:47;;;;;;;17.42;9.35;;;;;;;;;;4957507;28;20818;-73
2022/12/20 09:07:12;;;;;;;14.98;8.35;;;;;;;;;;4942636;28;20035;-70
2022/12/20 09:09:38;;;;;;;14.93;6.93;;;;;;;;;;4959452;28;20507;-71
2022/12/20 09:12:03;;;;;;;13.55;6.93;;;;;;;;;;4958179;28;20114;-71
2022/12/20 09:14:28;;;;;;;15.10;6.47;;;;;;;;;;4959776;28;20065;-72
2022/12/20 09:16:54;;;;;;;9.98;5.85;;;;;;;;;;4960375;28;20069;-72
2022/12/20 09:19:22;;;;;;;10.00;5.88;;;;;;;;;;4942198;28;20030;-72
2022/12/20 09:21:48;;;;;;;10.65;6.03;;;;;;;;;;4942236;28;20034;-72
2022/12/20 09:24:13;;;;;;;27.33;11.10;;;;;;;;;;4959084;28;20042;-72
2022/12/20 09:26:39;;;;;;;25.08;10.73;;;;;;;;;;4959952;28;20042;-72
2022/12/20 09:29:05;;;;;;;12.00;6.82;;;;;;;;;;4959603;28;20049;-72
2022/12/20 09:31:30;;;;;;;13.38;6.05;;;;;;;;;;4958597;28;20500;-70
2022/12/20 09:33:56;;;;;;;13.23;5.88;;;;;;;;;;4958983;28;20052;-72
2022/12/20 09:36:23;;;;;;;17.23;7.35;;;;;;;;;;4959864;28;20033;-71
2022/12/20 09:38:50;;;;;;;14.07;6.30;;;;;;;;;;4959682;28;20099;-71
2022/12/20 09:41:36;;;;;;;12.57;5.80;;;;;;;;;;4945412;28;20457;-73
2022/12/20 09:44:04;;;;;;;8.60;5.30;;;;;;;;;;4945269;28;20725;-71
2022/12/20 09:46:30;;;;;;;11.02;5.50;;;;;;;;;;4961755;28;20041;-73
2022/12/20 09:49:00;;;;;;;12.85;5.57;;;;;;;;;;4946013;28;20045;-71
2022/12/20 09:51:35;;;;;;;10.40;5.70;;;;;;;;;;4960730;28;20030;-72
2022/12/20 09:54:14;;;;;;;24.80;9.45;;;;;;;;;;4961904;28;20410;-71
2022/12/20 09:56:43;;;;;;;12.70;6.43;;;;;;;;;;4944751;28;20610;-73
2022/12/20 09:59:13;;;;;;;14.38;6.45;;;;;;;;;;4960654;28;20445;-72
2022/12/20 10:01:42;;;;;;;10.82;5.78;;;;;;;;;;4960265;28;20125;-75
2022/12/20 10:04:24;;;;;;;10.30;5.22;;;;;;;;;;4963299;28;20049;-73
2022/12/20 10:06:59;;;;;;;11.75;5.53;;;;;;;;;;4945374;28;20425;-71
2022/12/20 10:09:28;;;;;;;13.38;6.70;;;;;;;;;;4963662;28;20398;-71
2022/12/20 10:12:12;;;;;;;13.95;5.90;;;;;;;;;;4962848;28;20548;-72
2022/12/20 10:14:37;;;;;;;12.02;6.50;;;;;;;;;;4962188;28;20668;-72
2022/12/20 10:17:22;;;;;;;14.43;7.97;;;;;;;;;;4944796;28;20200;-70
2022/12/20 10:19:53;;;;;;;18.15;9.93;;;;;;;;;;4904775;28;20026;-71
2022/12/20 10:22:18;;;;;;;13.50;6.05;;;;;;;;;;4962310;28;20037;-71
2022/12/20 10:24:46;;;;;;;16.25;9.80;;;;;;;;;;4944845;28;20027;-72
2022/12/20 10:27:14;;;;;;;12.18;5.68;;;;;;;;;;4944804;28;20617;-70
2022/12/20 10:29:39;;;;;;;11.77;5.65;;;;;;;;;;4961830;28;20039;-71
2022/12/20 10:32:10;;;;;;;9.73;5.85;;;;;;;;;;4944780;28;20038;-71
2022/12/20 10:34:35;;;;;;;15.15;6.10;;;;;;;;;;4960377;28;20275;-72
2022/12/20 10:37:13;;;;;;;15.10;6.05;;;;;;;;;;4962505;28;20594;-71
2022/12/20 10:39:42;;;;;;;10.20;5.38;;;;;;;;;;4943311;28;20040;-71
2022/12/20 10:42:35;;;;;;;10.43;5.10;;;;;;;;;;4963125;28;20756;-72
2022/12/20 10:45:01;;;;;;;13.68;6.40;;;;;;;;;;4962787;28;20039;-72
2022/12/20 10:47:27;;;;;;;12.05;6.47;;;;;;;;;;4961678;28;20100;-74
2022/12/20 10:50:06;;;;;;;15.63;6.13;;;;;;;;;;4961600;28;20480;-71
2022/12/20 10:52:31;;;;;;;15.32;6.50;;;;;;;;;;4960782;28;20579;-72
2022/12/20 10:54:57;;;;;;;17.38;6.90;;;;;;;;;;4960559;28;20207;-74
2022/12/20 10:57:28;;;;;;;21.50;7.90;;;;;;;;;;4961084;28;20227;-70
2022/12/20 10:59:54;;;;;;;22.90;7.85;;;;;;;;;;4961026;28;20053;-74
2022/12/20 11:02:36;;;;;;;19.52;7.38;;;;;;;;;;4962073;28;20034;-73
2022/12/20 11:05:10;;;;;;;22.27;7.40;;;;;;;;;;4929031;28;20579;-72
2022/12/20 11:07:36;;;;;;;18.92;6.80;;;;;;;;;;4961377;28;20643;-71
2022/12/20 11:10:15;;;;;;;19.70;7.72;;;;;;;;;;4961793;28;20030;-70
2022/12/20 11:12:53;;;;;;;17.73;6.90;;;;;;;;;;4961278;28;20035;-71
2022/12/20 11:15:22;;;;;;;17.98;7.57;;;;;;;;;;4943945;28;20046;-76
2022/12/20 11:17:55;;;;;;;20.95;7.03;;;;;;;;;;4943675;28;20244;-71
2022/12/20 11:20:25;;;;;;;15.30;7.32;;;;;;;;;;4959803;28;20027;-69
2022/12/20 11:23:02;;;;;;;19.08;7.30;;;;;;;;;;4943487;28;20034;-72
2022/12/20 11:25:49;;;;;;;15.18;7.10;;;;;;;;;;4954546;28;20224;-74
2022/12/20 11:28:24;;;;;;;15.95;6.93;;;;;;;;;;4961688;28;20023;-72
2022/12/20 11:31:00;;;;;;;17.02;6.78;;;;;;;;;;4961733;28;20048;-73
2022/12/20 11:33:40;;;;;;;17.70;6.85;;;;;;;;;;4944615;28;20038;-72
2022/12/20 11:36:20;;;;;;;16.17;6.95;;;;;;;;;;4961437;28;20514;-73
2022/12/20 11:38:47;;;;;;;17.42;7.25;;;;;;;;;;4961600;28;20031;-71
2022/12/20 11:41:35;;;;;;;15.80;7.18;;;;;;;;;;4960994;28;20034;-73
2022/12/20 11:44:19;;;;;;;16.63;7.55;;;;;;;;;;4960958;28;20084;-71
2022/12/20 11:47:03;;;;;;;15.77;7.15;;;;;;;;;;4939804;28;20568;-72
2022/12/20 11:49:28;;;;;;;16.38;6.93;;;;;;;;;;4941923;28;20643;-72
2022/12/20 11:52:12;;;;;;;13.90;6.88;;;;;;;;;;4941803;28;20324;-74
2022/12/20 11:54:45;;;;;;;16.35;7.05;;;;;;;;;;4941567;28;20554;-73
2022/12/20 11:57:19;;;;;;;20.52;7.72;;;;;;;;;;4923522;28;20483;-71
2022/12/20 11:59:47;;;;;;;14.32;7.25;;;;;;;;;;4958842;28;20031;-72
2022/12/20 12:02:26;;;;;;;18.70;7.53;;;;;;;;;;4942266;28;20639;-71
2022/12/20 12:04:58;;;;;;;16.75;7.03;;;;;;;;;;4960909;28;20404;-69
2022/12/20 12:07:31;;;;;;;21.40;8.50;;;;;;;;;;4943061;28;20050;-73
2022/12/20 12:10:11;;;;;;;18.52;8.38;;;;;;;;;;4960959;28;20052;-72
2022/12/20 12:12:43;;;;;;;19.95;8.32;;;;;;;;;;4961120;28;20467;-70
2022/12/20 12:15:14;;;;;;;14.73;8.02;;;;;;;;;;4960814;28;20022;-72
2022/12/20 12:17:48;;;;;;;19.85;7.60;;;;;;;;;;4943002;28;20225;-71
2022/12/20 12:20:17;;;;;;;19.45;8.93;;;;;;;;;;4960745;28;20434;-72
2022/12/20 12:22:43;;;;;;;13.90;7.38;;;;;;;;;;4961061;28;20123;-72
2022/12/20 12:25:13;;;;;;;21.25;8.32;;;;;;;;;;4960948;28;20042;-72
2022/12/20 12:27:39;;;;;;;20.33;8.60;;;;;;;;;;4960614;28;20107;-71
2022/12/20 12:30:04;;;;;;;18.23;8.13;;;;;;;;;;4927372;28;20039;-71
2022/12/20 12:32:35;;;;;;;16.88;7.53;;;;;;;;;;4959843;28;20467;-71
2022/12/20 12:35:04;;;;;;;18.60;7.97;;;;;;;;;;4959996;28;20352;-70
2022/12/20 12:37:41;;;;;;;20.13;8.82;;;;;;;;;;4960483;28;20030;-71
2022/12/20 12:40:21;;;;;;;17.38;8.35;;;;;;;;;;4942458;28;20131;-72
2022/12/20 12:42:55;;;;;;;20.02;6.82;;;;;;;;;;4960635;28;20365;-72
2022/12/20 12:45:26;;;;;;;19.63;8.30;;;;;;;;;;4960192;28;20034;-72
2022/12/20 12:47:54;;;;;;;15.90;7.07;;;;;;;;;;4959414;28;20085;-72
2022/12/20 12:50:25;;;;;;;15.70;8.20;;;;;;;;;;4958922;28;20027;-73
2022/12/20 12:52:53;;;;;;;14.97;7.83;;;;;;;;;;4958211;28;20544;-72
2022/12/20 12:55:38;;;;;;;17.80;6.68;;;;;;;;;;4959551;28;20364;-72
2022/12/20 12:58:21;;;;;;;15.05;6.82;;;;;;;;;;4959899;28;20519;-71
2022/12/20 13:00:49;;;;;;;16.88;6.75;;;;;;;;;;4941995;28;20038;-71
2022/12/20 13:03:16;;;;;;;14.18;6.60;;;;;;;;;;4959269;28;20720;-72
2022/12/20 13:05:43;;;;;;;14.70;6.28;;;;;;;;;;4959718;28;20031;-71
2022/12/20 13:08:14;;;;;;;21.15;7.10;;;;;;;;;;4926290;28;20567;-70
2022/12/20 13:10:42;;;;;;;16.73;7.10;;;;;;;;;;4959908;28;20029;-71
2022/12/20 13:13:12;;;;;;;17.05;6.60;;;;;;;;;;4942354;28;20061;-74
2022/12/20 13:15:41;;;;;;;20.58;8.00;;;;;;;;;;4964539;28;20504;-73
2022/12/20 13:18:10;;;;;;;14.35;6.60;;;;;;;;;;4965629;28;20184;-73
2022/12/20 13:20:38;;;;;;;17.73;7.47;;;;;;;;;;4948985;28;20121;-72
2022/12/20 13:23:09;;;;;;;17.30;7.57;;;;;;;;;;4948246;28;20046;-72
2022/12/20 13:25:38;;;;;;;16.48;7.72;;;;;;;;;;4948524;28;20030;-71
2022/12/20 13:28:15;;;;;;;19.40;7.45;;;;;;;;;;4947697;28;20646;-71
2022/12/20 13:30:44;;;;;;;13.93;7.03;;;;;;;;;;4965456;28;20319;-72
2022/12/20 13:33:28;;;;;;;17.50;7.30;;;;;;;;;;4964679;28;20220;-72
2022/12/20 13:35:55;;;;;;;16.45;7.85;;;;;;;;;;4948012;28;20043;-69
2022/12/20 13:38:41;;;;;;;23.05;7.82;;;;;;;;;;4964947;28;20045;-71
2022/12/20 13:41:21;;;;;;;17.73;8.00;;;;;;;;;;4951961;28;20365;-72
2022/12/20 13:43:48;;;;;;;16.25;8.55;;;;;;;;;;4947887;28;20030;-73
2022/12/20 13:46:18;;;;;;;16.55;7.68;;;;;;;;;;4964499;28;20051;-73
2022/12/20 13:48:46;;;;;;;18.90;8.20;;;;;;;;;;4965636;28;20229;-71
2022/12/20 13:51:21;;;;;;;20.45;8.10;;;;;;;;;;4965748;28;20328;-70
2022/12/20 13:53:54;;;;;;;14.85;8.43;;;;;;;;;;4940101;28;20066;-74
2022/12/20 13:56:32;;;;;;;19.25;8.70;;;;;;;;;;4958135;28;20052;-73
2022/12/20 13:59:04;;;;;;;22.23;9.18;;;;;;;;;;4931761;28;20424;-70
2022/12/20 14:01:33;;;;;;;22.15;9.45;;;;;;;;;;4963620;28;20392;-72
2022/12/20 14:04:03;;;;;;;26.05;8.90;;;;;;;;;;4947927;28;20042;-71
2022/12/20 14:06:28;;;;;;;17.75;9.23;;;;;;;;;;4948200;28;20039;-74
2022/12/20 14:08:54;;;;;;;17.45;9.15;;;;;;;;;;4965354;28;20853;-72
2022/12/20 14:11:22;;;;;;;20.85;9.48;;;;;;;;;;4947408;28;20739;-72
2022/12/20 14:13:58;;;;;;;20.33;9.95;;;;;;;;;;4947654;28;20039;-72
2022/12/20 14:16:27;;;;;;;23.17;9.93;;;;;;;;;;4965459;28;20496;-72
2022/12/20 14:18:55;;;;;;;22.73;10.60;;;;;;;;;;4965899;28;20749;-73
2022/12/20 14:21:26;;;;;;;18.63;9.93;;;;;;;;;;4965107;28;20038;-72
2022/12/20 14:23:57;;;;;;;21.80;9.95;;;;;;;;;;4947970;28;20038;-73
2022/12/20 14:26:32;;;;;;;25.85;10.93;;;;;;;;;;4962522;28;20030;-71
2022/12/20 14:28:59;;;;;;;25.00;10.65;;;;;;;;;;4961476;28;20040;-71
2022/12/20 14:31:33;;;;;;;25.02;11.30;;;;;;;;;;4943370;28;20030;-72
2022/12/20 14:34:03;;;;;;;21.08;9.90;;;;;;;;;;4961823;28;20038;-72
2022/12/20 14:36:30;;;;;;;24.95;11.43;;;;;;;;;;4961578;28;20036;-72
2022/12/20 14:38:56;;;;;;;25.60;11.90;;;;;;;;;;4928347;28;20034;-72
2022/12/20 14:41:28;;;;;;;29.60;11.60;;;;;;;;;;4961622;28;20425;-70
2022/12/20 14:43:56;;;;;;;;;;;;;;;;;;4962301;28;20290;-73
2022/12/20 14:46:22;;;;;;;23.80;12.15;;;;;;;;;;4958918;28;19914;-72
2022/12/20 14:48:47;;;;;;;25.33;13.25;;;;;;;;;;4944023;28;20418;-69